createdAt,value
2018-06-14T00:01:32.023Z,81.63
2018-06-14T00:04:02.367Z,81.55
2018-06-14T00:06:32.605Z,82.04
2018-06-14T00:09:02.819Z,82.66
2018-06-14T00:11:33.028Z,82.43
2018-06-14T00:14:04.360Z,82.62
2018-06-14T00:16:34.426Z,83.30
2018-06-14T00:19:04.473Z,83.31
2018-06-14T00:21:34.363Z,83.49
2018-06-14T00:24:04.153Z,83.24
2018-06-14T00:26:34.338Z,83.32
2018-06-14T00:29:04.338Z,83.64
2018-06-14T00:31:34.547Z,84.12
2018-06-14T00:34:04.670Z,84.67
2018-06-14T00:36:34.766Z,85.26
2018-06-14T00:39:05.299Z,85.63
2018-06-14T00:41:35.480Z,85.79
2018-06-14T00:44:05.586Z,86.43
2018-06-14T00:46:35.538Z,87.23
2018-06-14T00:49:05.653Z,87.69
2018-06-14T00:51:35.843Z,88.20
2018-06-14T00:54:05.704Z,88.46
2018-06-14T00:56:46.315Z,88.85
2018-06-14T00:59:16.628Z,88.91
2018-06-14T01:01:47.144Z,89.27
2018-06-14T01:04:17.224Z,89.38
2018-06-14T01:06:47.426Z,89.40
2018-06-14T01:09:17.440Z,89.79
2018-06-14T01:11:47.638Z,90.14
2018-06-14T01:14:17.689Z,90.72
2018-06-14T01:16:47.858Z,90.38
2018-06-14T01:19:18.044Z,90.74
2018-06-14T01:21:48.090Z,91.18
2018-06-14T01:24:18.083Z,91.42
2018-06-14T01:26:48.188Z,91.55
2018-06-14T01:29:18.390Z,91.43
2018-06-14T01:31:48.493Z,91.91
2018-06-14T01:34:18.584Z,92.06
2018-06-14T01:36:48.796Z,92.03
2018-06-14T01:39:18.905Z,92.41
2018-06-14T01:41:49.232Z,92.51
2018-06-14T01:44:19.985Z,92.17
2018-06-14T01:46:50.034Z,92.17
2018-06-14T01:49:20.253Z,92.32
2018-06-14T01:51:50.384Z,92.31
2018-06-14T01:54:20.642Z,92.26
2018-06-14T01:56:50.826Z,92.15
2018-06-14T01:59:20.983Z,92.67
2018-06-14T02:01:51.144Z,92.35
2018-06-14T02:04:21.148Z,92.81
2018-06-14T02:06:51.159Z,92.86
2018-06-14T02:09:21.400Z,93.06
2018-06-14T02:11:51.870Z,93.07
2018-06-14T02:14:21.731Z,93.45
2018-06-14T02:16:51.729Z,93.53
2018-06-14T02:19:21.964Z,93.26
2018-06-14T02:21:51.883Z,93.47
2018-06-14T02:24:21.957Z,93.62
2018-06-14T02:26:52.324Z,94.24
2018-06-14T02:29:22.626Z,94.21
2018-06-14T02:31:52.581Z,94.38
2018-06-14T02:34:22.438Z,94.27
2018-06-14T02:36:52.407Z,94.92
2018-06-14T02:39:22.476Z,95.03
2018-06-14T02:41:52.497Z,94.80
2018-06-14T02:44:22.602Z,95.25
2018-06-14T02:46:52.681Z,95.30
2018-06-14T02:49:22.850Z,95.39
2018-06-14T02:51:54.488Z,95.49
2018-06-14T02:54:24.516Z,95.40
2018-06-14T02:56:54.572Z,95.49
2018-06-14T02:59:24.737Z,95.92
2018-06-14T03:01:54.804Z,95.95
2018-06-14T03:04:24.915Z,95.89
2018-06-14T03:06:54.806Z,95.54
2018-06-14T03:09:24.865Z,95.55
2018-06-14T03:11:54.799Z,95.41
2018-06-14T03:14:25.207Z,96.00
2018-06-14T03:16:55.208Z,96.01
2018-06-14T03:19:25.385Z,95.73
2018-06-14T03:21:55.403Z,96.33
2018-06-14T03:24:26.214Z,96.26
2018-06-14T03:26:56.392Z,96.45
2018-06-14T03:29:26.413Z,96.30
2018-06-14T03:31:56.659Z,95.95
2018-06-14T03:34:26.557Z,96.33
2018-06-14T03:36:56.635Z,95.90
2018-06-14T03:39:26.740Z,95.98
2018-06-14T03:42:04.406Z,95.90
2018-06-14T03:44:35.721Z,95.62
2018-06-14T03:47:07.239Z,95.67
2018-06-14T03:49:38.411Z,95.17
2018-06-14T03:52:10.525Z,95.59
2018-06-14T03:54:40.475Z,95.78
2018-06-14T03:57:11.267Z,95.63
2018-06-14T03:59:41.398Z,95.47
2018-06-14T04:02:11.564Z,95.78
2018-06-14T04:04:41.415Z,95.31
2018-06-14T04:07:11.539Z,95.45
2018-06-14T04:09:41.409Z,95.69
2018-06-14T04:12:11.559Z,95.52
2018-06-14T04:14:41.708Z,95.76
2018-06-14T04:17:11.891Z,95.74
2018-06-14T04:19:42.143Z,95.97
2018-06-14T04:22:11.709Z,95.68
2018-06-14T04:24:41.200Z,95.92
2018-06-14T04:27:11.202Z,95.84
2018-06-14T04:29:41.004Z,96.10
2018-06-14T04:32:10.872Z,95.68
2018-06-14T04:34:40.596Z,95.94
2018-06-14T04:37:10.305Z,96.16
2018-06-14T04:39:40.141Z,96.14
2018-06-14T04:42:09.830Z,96.30
2018-06-14T04:44:39.890Z,96.20
2018-06-14T04:47:09.642Z,95.97
2018-06-14T04:49:39.470Z,96.35
2018-06-14T04:52:09.190Z,96.36
2018-06-14T04:54:39.504Z,95.74
2018-06-14T04:57:09.562Z,95.79
2018-06-14T04:59:39.332Z,95.33
2018-06-14T05:02:08.974Z,95.01
2018-06-14T05:04:38.909Z,94.09
2018-06-14T05:07:08.629Z,93.83
2018-06-14T05:09:38.437Z,92.78
2018-06-14T05:12:08.477Z,91.50
2018-06-14T05:14:38.431Z,91.11
2018-06-14T05:17:08.071Z,91.00
2018-06-14T05:19:37.726Z,89.65
2018-06-14T05:22:07.703Z,89.22
2018-06-14T05:24:38.306Z,88.92
2018-06-14T05:27:08.536Z,88.13
2018-06-14T05:29:38.323Z,87.54
2018-06-14T05:32:08.096Z,87.03
2018-06-14T05:34:37.916Z,86.81
2018-06-14T05:37:07.669Z,87.95
2018-06-14T05:39:37.529Z,86.24
2018-06-14T05:42:07.270Z,84.97
2018-06-14T05:44:37.192Z,85.88
2018-06-14T05:47:07.107Z,85.71
2018-06-14T05:49:36.934Z,85.25
2018-06-14T05:52:06.741Z,85.77
2018-06-14T05:54:36.613Z,84.39
2018-06-14T05:57:06.666Z,84.56
2018-06-14T05:59:36.474Z,84.22
2018-06-14T06:02:07.064Z,84.30
2018-06-14T06:04:36.936Z,83.58
2018-06-14T06:07:06.933Z,84.63
2018-06-14T06:09:36.700Z,83.56
2018-06-14T06:12:06.300Z,83.89
2018-06-14T06:14:35.965Z,83.24
2018-06-14T06:17:05.811Z,83.53
2018-06-14T06:19:35.610Z,83.17
2018-06-14T06:22:05.234Z,83.08
2018-06-14T06:24:35.056Z,83.14
2018-06-14T06:27:05.053Z,82.21
2018-06-14T06:29:34.901Z,82.06
2018-06-14T06:32:04.728Z,81.45
2018-06-14T06:34:34.577Z,79.63
2018-06-14T06:37:04.354Z,81.45
2018-06-14T06:39:34.922Z,79.76
2018-06-14T06:42:04.809Z,79.09
2018-06-14T06:44:34.688Z,79.46
2018-06-14T06:47:04.159Z,80.62
2018-06-14T06:49:34.242Z,80.48
2018-06-14T06:52:04.353Z,78.18
2018-06-14T06:54:34.203Z,76.90
2018-06-14T06:57:04.507Z,77.45
2018-06-14T06:59:34.478Z,77.16
2018-06-14T07:02:04.167Z,77.37
2018-06-14T07:04:35.230Z,77.62
2018-06-14T07:07:04.966Z,77.51
2018-06-14T07:09:34.681Z,75.21
2018-06-14T07:12:04.556Z,74.66
2018-06-14T07:14:34.261Z,74.00
2018-06-14T07:17:04.235Z,73.67
2018-06-14T07:19:33.907Z,73.47
2018-06-14T07:22:03.835Z,74.33
2018-06-14T07:24:33.612Z,71.85
2018-06-14T07:27:04.301Z,70.16
2018-06-14T07:29:34.074Z,70.05
2018-06-14T07:32:03.898Z,68.60
2018-06-14T07:34:33.765Z,67.11
2018-06-14T07:37:03.628Z,67.26
2018-06-14T07:39:33.599Z,66.32
2018-06-14T07:42:03.472Z,67.55
2018-06-14T07:44:33.242Z,64.56
2018-06-14T07:47:02.829Z,65.20
2018-06-14T07:49:32.765Z,64.74
2018-06-14T07:52:02.783Z,66.05
2018-06-14T07:54:32.259Z,65.87
2018-06-14T07:57:01.933Z,65.76
2018-06-14T07:59:31.667Z,65.87
2018-06-14T08:02:01.519Z,67.79
2018-06-14T08:04:31.369Z,67.57
2018-06-14T08:07:01.056Z,67.64
2018-06-14T08:09:30.697Z,65.77
2018-06-14T08:12:00.559Z,65.69
2018-06-14T08:14:30.379Z,67.04
2018-06-14T08:17:00.245Z,67.52
2018-06-14T08:19:30.084Z,68.04
2018-06-14T08:22:00.013Z,67.90
2018-06-14T08:24:29.992Z,68.29
2018-06-14T08:26:59.737Z,68.71
2018-06-14T08:29:29.605Z,68.72
2018-06-14T08:31:59.519Z,68.05
2018-06-14T08:34:29.191Z,66.16
2018-06-14T08:36:59.250Z,65.16
2018-06-14T08:39:29.030Z,65.37
2018-06-14T08:41:59.212Z,65.91
2018-06-14T08:44:29.381Z,64.61
2018-06-14T08:47:00.344Z,64.80
2018-06-14T08:49:30.285Z,65.35
2018-06-14T08:52:00.266Z,64.30
2018-06-14T08:54:30.045Z,67.02
2018-06-14T08:56:59.965Z,65.68
2018-06-14T08:59:29.800Z,65.86
2018-06-14T09:01:59.665Z,63.81
2018-06-14T09:04:29.270Z,64.49
2018-06-14T09:06:59.077Z,63.98
2018-06-14T09:09:28.942Z,64.44
2018-06-14T09:11:58.840Z,63.09
2018-06-14T09:14:28.843Z,62.70
2018-06-14T09:16:58.997Z,63.50
2018-06-14T09:19:28.948Z,63.69
2018-06-14T09:21:58.744Z,64.11
2018-06-14T09:24:28.673Z,63.62
2018-06-14T09:26:58.424Z,62.03
2018-06-14T09:29:28.183Z,60.15
2018-06-14T09:31:57.988Z,62.65
2018-06-14T09:34:27.805Z,62.78
2018-06-14T09:36:57.740Z,59.64
2018-06-14T09:39:27.591Z,59.94
2018-06-14T09:41:58.508Z,60.05
2018-06-14T09:44:28.209Z,60.23
2018-06-14T09:46:58.099Z,59.04
2018-06-14T09:49:27.891Z,60.67
2018-06-14T09:51:57.647Z,60.27
2018-06-14T09:54:27.566Z,59.70
2018-06-14T09:56:57.333Z,59.16
2018-06-14T09:59:28.106Z,57.53
2018-06-14T10:01:57.997Z,59.60
2018-06-14T10:04:27.881Z,59.84
2018-06-14T10:06:57.789Z,57.75
2018-06-14T10:09:27.836Z,57.87
2018-06-14T10:11:57.534Z,57.72
2018-06-14T10:14:27.464Z,57.05
2018-06-14T10:16:57.332Z,59.77
2018-06-14T10:19:27.494Z,56.75
2018-06-14T10:21:57.381Z,57.37
2018-06-14T10:24:27.304Z,56.43
2018-06-14T10:26:57.359Z,55.55
2018-06-14T10:29:26.947Z,55.36
2018-06-14T10:31:56.769Z,55.47
2018-06-14T10:34:26.680Z,52.89
2018-06-14T10:36:56.178Z,52.52
2018-06-14T10:39:26.027Z,52.24
2018-06-14T10:41:56.119Z,51.66
2018-06-14T10:44:25.993Z,51.63
2018-06-14T10:46:55.733Z,52.61
2018-06-14T10:49:25.453Z,51.94
2018-06-14T10:51:55.223Z,50.92
2018-06-14T10:54:25.036Z,52.62
2018-06-14T10:56:54.763Z,50.30
2018-06-14T10:59:24.709Z,49.60
2018-06-14T11:01:55.849Z,49.62
2018-06-14T11:04:25.586Z,49.50
2018-06-14T11:06:55.260Z,49.27
2018-06-14T11:09:24.921Z,48.48
2018-06-14T11:11:54.861Z,48.86
2018-06-14T11:14:24.603Z,47.77
2018-06-14T11:16:54.454Z,50.45
2018-06-14T11:19:24.111Z,49.89
2018-06-14T11:21:53.820Z,49.22
2018-06-14T11:24:23.584Z,48.10
2018-06-14T11:26:53.159Z,47.79
2018-06-14T11:29:22.925Z,47.61
2018-06-14T11:31:53.676Z,46.72
2018-06-14T11:34:23.551Z,47.79
2018-06-14T11:36:53.189Z,47.48
2018-06-14T11:39:22.741Z,49.44
2018-06-14T11:41:52.692Z,48.93
2018-06-14T11:44:22.440Z,51.25
2018-06-14T11:46:51.995Z,51.85
2018-06-14T11:49:21.662Z,52.50
2018-06-14T11:51:51.732Z,51.91
2018-06-14T11:54:21.666Z,51.43
2018-06-14T11:59:20.016Z,49.81
2018-06-14T12:01:49.753Z,51.29
2018-06-14T12:04:19.648Z,51.79
2018-06-14T12:06:49.380Z,52.03
2018-06-14T12:09:19.294Z,52.54
2018-06-14T12:11:48.992Z,51.23
2018-06-14T12:14:18.814Z,50.26
2018-06-14T12:16:48.535Z,50.37
2018-06-14T12:19:18.283Z,50.35
2018-06-14T12:21:48.266Z,49.39
2018-06-14T12:24:18.055Z,46.95
2018-06-14T12:26:47.725Z,45.63
2018-06-14T12:29:17.536Z,45.47
2018-06-14T12:31:47.355Z,46.99
2018-06-14T12:34:17.230Z,42.83
2018-06-14T12:36:47.452Z,42.94
2018-06-14T12:39:17.258Z,44.03
2018-06-14T12:41:47.094Z,44.61
2018-06-14T12:44:17.084Z,44.83
2018-06-14T12:46:47.129Z,43.50
2018-06-14T12:49:16.934Z,41.82
2018-06-14T12:51:46.584Z,43.10
2018-06-14T12:54:16.443Z,43.60
2018-06-14T12:56:49.001Z,42.21
2018-06-14T12:59:18.835Z,43.10
2018-06-14T13:01:50.245Z,45.20
2018-06-14T13:04:20.030Z,42.95
2018-06-14T13:06:49.864Z,42.91
2018-06-14T13:09:19.939Z,44.61
2018-06-14T13:11:49.770Z,44.41
2018-06-14T13:14:19.860Z,45.96
2018-06-14T13:16:49.844Z,45.33
2018-06-14T13:19:19.994Z,43.00
2018-06-14T13:21:49.911Z,44.17
2018-06-14T13:24:20.169Z,45.13
2018-06-14T13:26:50.685Z,44.40
2018-06-14T13:29:20.729Z,46.00
2018-06-14T13:31:50.889Z,45.54
2018-06-14T13:34:21.091Z,44.39
2018-06-14T13:36:51.341Z,41.26
2018-06-14T13:39:21.546Z,38.52
2018-06-14T13:41:51.533Z,41.41
2018-06-14T13:44:21.698Z,40.96
2018-06-14T13:46:51.734Z,41.56
2018-06-14T13:49:22.041Z,41.51
2018-06-14T13:51:52.378Z,40.27
2018-06-14T13:54:22.576Z,41.37
2018-06-14T13:56:52.854Z,41.61
2018-06-14T13:59:23.060Z,41.19
2018-06-14T14:01:53.340Z,42.11
2018-06-14T14:04:23.462Z,42.21
2018-06-14T14:07:01.599Z,43.30
2018-06-14T14:09:31.681Z,43.10
2018-06-14T14:12:03.762Z,41.62
2018-06-14T14:14:33.820Z,41.55
2018-06-14T14:17:03.949Z,41.26
2018-06-14T14:19:34.379Z,39.54
2018-06-14T14:22:04.288Z,38.63
2018-06-14T14:24:34.688Z,37.87
2018-06-14T14:27:05.828Z,38.59
2018-06-14T14:29:36.037Z,39.29
2018-06-14T14:32:06.413Z,41.29
2018-06-14T14:34:36.789Z,41.40
2018-06-14T14:37:06.885Z,40.37
2018-06-14T14:39:37.198Z,37.36
2018-06-14T14:42:07.934Z,38.70
2018-06-14T14:44:39.142Z,37.72
2018-06-14T14:47:10.086Z,37.55
2018-06-14T14:49:40.864Z,37.65
2018-06-14T14:52:11.869Z,38.73
2018-06-14T14:54:42.069Z,38.74
2018-06-14T14:57:12.888Z,38.32
2018-06-14T14:59:44.112Z,40.49
2018-06-14T15:02:14.393Z,39.82
2018-06-14T15:04:45.329Z,40.40
2018-06-14T15:07:16.402Z,38.87
2018-06-14T15:09:47.794Z,39.00
2018-06-14T15:12:19.115Z,37.93
2018-06-14T15:14:50.149Z,38.70
2018-06-14T15:17:21.535Z,38.89
2018-06-14T15:19:52.785Z,40.35
2018-06-14T15:22:24.827Z,38.66
2018-06-14T15:24:56.227Z,36.84
2018-06-14T15:27:27.722Z,34.13
2018-06-14T15:29:58.872Z,35.22
2018-06-14T15:32:30.359Z,34.60
2018-06-14T15:35:02.742Z,35.27
2018-06-14T15:37:34.536Z,34.82
2018-06-14T15:40:06.385Z,33.55
2018-06-14T15:42:37.383Z,33.69
2018-06-14T15:45:08.988Z,34.35
2018-06-14T15:47:40.400Z,35.41
2018-06-14T15:50:11.571Z,33.61
2018-06-14T15:52:43.090Z,33.20
2018-06-14T15:55:24.011Z,32.80
2018-06-14T15:57:54.121Z,33.39
2018-06-14T16:00:24.681Z,31.26
2018-06-14T16:02:55.140Z,32.10
2018-06-14T16:05:26.023Z,30.93
2018-06-14T16:07:56.322Z,30.07
2018-06-14T16:10:26.783Z,30.41
2018-06-14T16:12:57.714Z,31.38
2018-06-14T16:15:28.796Z,30.60
2018-06-14T16:17:59.136Z,30.80
2018-06-14T16:20:30.675Z,30.33
2018-06-14T16:23:00.900Z,28.88
2018-06-14T16:25:31.393Z,28.96
2018-06-14T16:28:02.744Z,29.25
2018-06-14T16:30:33.539Z,29.82
2018-06-14T16:33:04.635Z,29.43
2018-06-14T16:35:35.469Z,30.54
2018-06-14T16:38:06.222Z,29.48
2018-06-14T16:40:36.784Z,30.14
2018-06-14T16:43:08.060Z,30.21
2018-06-14T16:45:38.666Z,30.53
2018-06-14T16:48:09.687Z,31.20
2018-06-14T16:50:40.596Z,33.08
2018-06-14T16:53:10.769Z,33.68
2018-06-14T16:55:40.857Z,33.94
2018-06-14T16:58:10.818Z,33.96
2018-06-14T17:00:41.048Z,35.83
2018-06-14T17:03:11.422Z,35.42
2018-06-14T17:05:41.702Z,36.54
2018-06-14T17:08:11.821Z,37.32
2018-06-14T17:10:42.025Z,37.64
2018-06-14T17:13:12.079Z,37.13
2018-06-14T17:15:42.376Z,36.81
2018-06-14T17:18:12.622Z,36.38
2018-06-14T17:20:42.789Z,37.80
2018-06-14T17:23:13.009Z,38.48
2018-06-14T17:25:43.468Z,37.92
2018-06-14T17:28:13.529Z,37.83
2018-06-14T17:30:43.819Z,38.10
2018-06-14T17:33:14.068Z,38.92
2018-06-14T17:35:44.472Z,38.91
2018-06-14T17:38:14.694Z,39.07
2018-06-14T17:40:45.066Z,39.47
2018-06-14T17:43:15.380Z,40.57
2018-06-14T17:45:45.655Z,41.01
2018-06-14T17:48:16.099Z,41.74
2018-06-14T17:50:46.120Z,42.40
2018-06-14T17:53:16.107Z,42.82
2018-06-14T17:55:46.136Z,42.70
2018-06-14T17:58:16.473Z,43.91
2018-06-14T18:00:46.704Z,43.49
2018-06-14T18:03:17.054Z,44.50
2018-06-14T18:05:47.354Z,44.30
2018-06-14T18:08:17.496Z,45.01
2018-06-14T18:10:47.547Z,45.90
2018-06-14T18:13:17.634Z,48.14
2018-06-14T18:15:47.976Z,50.32
2018-06-14T18:18:17.923Z,52.27
2018-06-14T18:20:48.190Z,53.21
2018-06-14T18:23:18.469Z,54.54
2018-06-14T18:25:49.166Z,55.62
2018-06-14T18:28:19.098Z,56.37
2018-06-14T18:30:49.643Z,57.63
2018-06-14T18:33:19.772Z,59.63
2018-06-14T18:35:49.902Z,60.56
2018-06-14T18:38:19.932Z,62.01
2018-06-14T18:40:50.289Z,62.78
2018-06-14T18:43:21.526Z,63.25
2018-06-14T18:45:51.785Z,63.51
2018-06-14T18:48:21.938Z,64.18
2018-06-14T18:50:52.349Z,65.08
2018-06-14T18:53:23.438Z,65.02
2018-06-14T18:55:53.636Z,65.30
2018-06-14T18:58:23.790Z,65.61
2018-06-14T19:00:53.990Z,65.89
2018-06-14T19:03:24.399Z,65.80
2018-06-14T19:05:54.475Z,66.12
2018-06-14T19:08:24.604Z,66.46
2018-06-14T19:10:54.947Z,66.84
2018-06-14T19:13:25.176Z,68.22
2018-06-14T19:15:55.456Z,68.60
2018-06-14T19:18:25.549Z,67.80
2018-06-14T19:20:55.746Z,69.12
2018-06-14T19:23:26.280Z,69.15
2018-06-14T19:25:56.319Z,69.27
2018-06-14T19:28:26.728Z,69.78
2018-06-14T19:30:56.884Z,69.98
2018-06-14T19:33:26.985Z,69.42
2018-06-14T19:35:57.375Z,69.93
2018-06-14T19:38:27.495Z,70.25
2018-06-14T19:40:57.574Z,70.40
2018-06-14T19:43:27.777Z,70.43
2018-06-14T19:45:57.949Z,70.29
2018-06-14T19:48:28.277Z,71.11
2018-06-14T19:50:58.299Z,71.35
2018-06-14T19:53:28.590Z,71.71
2018-06-14T19:55:58.839Z,71.96
2018-06-14T19:58:28.859Z,71.94
2018-06-14T20:00:59.045Z,72.32
2018-06-14T20:03:29.147Z,72.32
2018-06-14T20:05:59.252Z,72.49
2018-06-14T20:08:29.476Z,72.79
2018-06-14T20:11:00.626Z,72.55
2018-06-14T20:13:30.595Z,72.84
2018-06-14T20:16:00.705Z,73.19
2018-06-14T20:18:30.798Z,72.70
2018-06-14T20:21:01.016Z,72.96
2018-06-14T20:23:31.452Z,72.77
2018-06-14T20:26:01.463Z,73.25
2018-06-14T20:28:31.492Z,72.95
2018-06-14T20:31:01.610Z,73.30
2018-06-14T20:33:31.907Z,73.38
2018-06-14T20:36:01.925Z,73.81
2018-06-14T20:38:32.966Z,73.61
2018-06-14T20:41:03.297Z,73.97
2018-06-14T20:43:34.206Z,74.12
2018-06-14T20:46:04.817Z,73.99
2018-06-14T20:48:34.896Z,74.06
2018-06-14T20:51:05.288Z,73.69
2018-06-14T20:53:35.424Z,73.60
2018-06-14T20:56:05.442Z,73.37
2018-06-14T20:58:35.698Z,74.01
2018-06-14T21:01:05.738Z,74.24
2018-06-14T21:03:35.861Z,74.34
2018-06-14T21:06:05.954Z,74.77
2018-06-14T21:08:36.245Z,75.27
2018-06-14T21:11:06.507Z,75.62
2018-06-14T21:13:36.690Z,75.84
2018-06-14T21:16:06.927Z,76.78
2018-06-14T21:18:36.819Z,77.64
2018-06-14T21:21:07.128Z,78.17
2018-06-14T21:23:37.105Z,77.96
2018-06-14T21:26:07.764Z,78.26
2018-06-14T21:28:37.664Z,78.57
2018-06-14T21:31:07.792Z,78.23
2018-06-14T21:33:37.976Z,77.78
2018-06-14T21:36:08.124Z,77.84
2018-06-14T21:38:38.366Z,77.49
2018-06-14T21:41:08.387Z,77.23
2018-06-14T21:43:38.619Z,77.26
2018-06-14T21:46:08.486Z,77.25
2018-06-14T21:48:38.725Z,77.42
2018-06-14T21:51:09.732Z,77.28
2018-06-14T21:53:39.952Z,77.55
2018-06-14T21:56:10.153Z,77.29
2018-06-14T21:58:40.253Z,77.84
2018-06-14T22:01:11.301Z,78.16
2018-06-14T22:03:46.489Z,78.19
2018-06-14T22:06:16.473Z,78.12
2018-06-14T22:08:46.455Z,78.29
2018-06-14T22:11:16.488Z,78.03
2018-06-14T22:13:46.720Z,78.13
2018-06-14T22:16:16.871Z,78.12
2018-06-14T22:18:46.851Z,77.69
2018-06-14T22:21:17.218Z,77.96
2018-06-14T22:23:47.418Z,77.72
2018-06-14T22:26:17.547Z,77.45
2018-06-14T22:28:47.563Z,77.41
2018-06-14T22:31:17.716Z,77.59
2018-06-14T22:33:58.444Z,77.41
2018-06-14T22:36:28.708Z,77.49
2018-06-14T22:38:58.919Z,77.14
2018-06-14T22:41:29.040Z,77.46
2018-06-14T22:43:59.953Z,77.43
2018-06-14T22:46:30.196Z,77.88
2018-06-14T22:49:00.280Z,77.94
2018-06-14T23:01:57.540Z,78.56
2018-06-14T23:04:29.698Z,80.77
2018-06-14T23:06:59.914Z,81.29
2018-06-14T23:10:39.834Z,81.41
2018-06-14T23:13:14.442Z,81.26
2018-06-14T23:15:45.056Z,81.92
2018-06-14T23:18:15.210Z,80.98
2018-06-14T23:20:45.401Z,81.44
2018-06-14T23:23:15.390Z,81.63
2018-06-14T23:25:45.508Z,82.17
2018-06-14T23:28:15.682Z,82.12
2018-06-14T23:30:45.881Z,82.41
2018-06-14T23:33:16.017Z,83.81
2018-06-14T23:35:45.927Z,84.86
2018-06-14T23:38:16.013Z,85.64
2018-06-14T23:40:45.954Z,85.94
2018-06-14T23:43:16.269Z,85.76
2018-06-14T23:45:46.386Z,86.21
2018-06-14T23:48:16.389Z,85.79
2018-06-14T23:50:46.622Z,85.91
2018-06-14T23:53:27.427Z,85.85
2018-06-14T23:55:57.324Z,86.46
2018-06-14T23:58:27.224Z,86.60
